sensor_id;sensor_type;location;lat;lon;timestamp;P1;durP1;ratioP1;P2;durP2;ratioP2
29570;SDS011;16814;52.118;11.436;2022-11-15T00:00:41;36.50;;;21.30;;
29570;SDS011;16814;52.118;11.436;2022-11-15T00:03:07;36.03;;;21.47;;
29570;SDS011;16814;52.118;11.436;2022-11-15T00:05:34;35.55;;;21.77;;
29570;SDS011;16814;52.118;11.436;2022-11-15T00:08:00;34.22;;;21.38;;
29570;SDS011;16814;52.118;11.436;2022-11-15T00:10:26;39.33;;;22.53;;
29570;SDS011;16814;52.118;11.436;2022-11-15T00:12:52;38.92;;;21.73;;
29570;SDS011;16814;52.118;11.436;2022-11-15T00:15:17;37.60;;;20.53;;
29570;SDS011;16814;52.118;11.436;2022-11-15T00:17:43;37.05;;;21.67;;
29570;SDS011;16814;52.118;11.436;2022-11-15T00:20:08;36.40;;;21.20;;
29570;SDS011;16814;52.118;11.436;2022-11-15T00:22:34;36.95;;;21.15;;
29570;SDS011;16814;52.118;11.436;2022-11-15T00:25:00;33.28;;;20.60;;
29570;SDS011;16814;52.118;11.436;2022-11-15T00:27:26;34.87;;;20.93;;
29570;SDS011;16814;52.118;11.436;2022-11-15T00:29:52;34.83;;;21.08;;
29570;SDS011;16814;52.118;11.436;2022-11-15T00:32:18;36.33;;;21.08;;
29570;SDS011;16814;52.118;11.436;2022-11-15T00:34:43;34.47;;;20.27;;
29570;SDS011;16814;52.118;11.436;2022-11-15T00:37:09;34.97;;;21.13;;
29570;SDS011;16814;52.118;11.436;2022-11-15T00:39:34;33.77;;;21.07;;
29570;SDS011;16814;52.118;11.436;2022-11-15T00:42:00;35.60;;;21.08;;
29570;SDS011;16814;52.118;11.436;2022-11-15T00:44:25;36.97;;;21.10;;
29570;SDS011;16814;52.118;11.436;2022-11-15T00:46:51;34.88;;;21.35;;
29570;SDS011;16814;52.118;11.436;2022-11-15T00:49:16;32.87;;;20.30;;
29570;SDS011;16814;52.118;11.436;2022-11-15T00:51:42;35.00;;;21.20;;
29570;SDS011;16814;52.118;11.436;2022-11-15T00:54:07;35.83;;;21.37;;
29570;SDS011;16814;52.118;11.436;2022-11-15T00:56:33;37.10;;;21.03;;
29570;SDS011;16814;52.118;11.436;2022-11-15T00:58:58;36.35;;;20.92;;
29570;SDS011;16814;52.118;11.436;2022-11-15T01:01:24;35.73;;;20.90;;
29570;SDS011;16814;52.118;11.436;2022-11-15T01:03:49;35.03;;;20.70;;
29570;SDS011;16814;52.118;11.436;2022-11-15T01:06:15;36.17;;;21.60;;
29570;SDS011;16814;52.118;11.436;2022-11-15T01:08:40;34.67;;;21.13;;
29570;SDS011;16814;52.118;11.436;2022-11-15T01:11:08;33.45;;;20.83;;
29570;SDS011;16814;52.118;11.436;2022-11-15T01:13:36;35.08;;;21.73;;
29570;SDS011;16814;52.118;11.436;2022-11-15T01:16:08;34.22;;;21.17;;
29570;SDS011;16814;52.118;11.436;2022-11-15T01:18:36;35.83;;;21.58;;
29570;SDS011;16814;52.118;11.436;2022-11-15T01:21:05;37.20;;;21.63;;
29570;SDS011;16814;52.118;11.436;2022-11-15T01:23:35;37.38;;;21.17;;
29570;SDS011;16814;52.118;11.436;2022-11-15T01:26:01;35.90;;;21.10;;
29570;SDS011;16814;52.118;11.436;2022-11-15T01:28:32;33.65;;;20.88;;
29570;SDS011;16814;52.118;11.436;2022-11-15T01:30:59;39.13;;;22.45;;
29570;SDS011;16814;52.118;11.436;2022-11-15T01:33:26;36.15;;;21.45;;
29570;SDS011;16814;52.118;11.436;2022-11-15T01:35:52;38.67;;;22.70;;
29570;SDS011;16814;52.118;11.436;2022-11-15T01:38:18;38.73;;;22.07;;
29570;SDS011;16814;52.118;11.436;2022-11-15T01:40:43;38.10;;;22.30;;
29570;SDS011;16814;52.118;11.436;2022-11-15T01:48:52;36.17;;;22.13;;
29570;SDS011;16814;52.118;11.436;2022-11-15T01:51:20;37.42;;;22.00;;
29570;SDS011;16814;52.118;11.436;2022-11-15T01:53:48;36.60;;;22.20;;
29570;SDS011;16814;52.118;11.436;2022-11-15T01:56:20;37.78;;;21.85;;
29570;SDS011;16814;52.118;11.436;2022-11-15T01:58:50;41.85;;;22.67;;
29570;SDS011;16814;52.118;11.436;2022-11-15T02:01:18;35.63;;;21.63;;
29570;SDS011;16814;52.118;11.436;2022-11-15T02:06:24;34.90;;;21.25;;
29570;SDS011;16814;52.118;11.436;2022-11-15T02:08:50;36.07;;;21.57;;
29570;SDS011;16814;52.118;11.436;2022-11-15T02:11:16;33.63;;;20.40;;
29570;SDS011;16814;52.118;11.436;2022-11-15T02:13:42;40.37;;;22.10;;
29570;SDS011;16814;52.118;11.436;2022-11-15T02:16:10;35.22;;;20.98;;
29570;SDS011;16814;52.118;11.436;2022-11-15T02:21:42;37.92;;;21.15;;
29570;SDS011;16814;52.118;11.436;2022-11-15T02:24:34;33.53;;;20.77;;
29570;SDS011;16814;52.118;11.436;2022-11-15T02:27:22;35.42;;;20.75;;
29570;SDS011;16814;52.118;11.436;2022-11-15T02:33:00;37.85;;;20.52;;
29570;SDS011;16814;52.118;11.436;2022-11-15T02:41:02;34.83;;;19.87;;
29570;SDS011;16814;52.118;11.436;2022-11-15T02:49:23;34.87;;;20.37;;
29570;SDS011;16814;52.118;11.436;2022-11-15T02:51:51;32.63;;;19.20;;
29570;SDS011;16814;52.118;11.436;2022-11-15T02:54:20;36.40;;;20.45;;
29570;SDS011;16814;52.118;11.436;2022-11-15T02:56:48;32.60;;;19.57;;
29570;SDS011;16814;52.118;11.436;2022-11-15T02:59:20;32.77;;;19.80;;
29570;SDS011;16814;52.118;11.436;2022-11-15T03:10:21;31.45;;;19.08;;
29570;SDS011;16814;52.118;11.436;2022-11-15T03:12:55;32.50;;;18.77;;
29570;SDS011;16814;52.118;11.436;2022-11-15T03:15:27;36.38;;;20.38;;
29570;SDS011;16814;52.118;11.436;2022-11-15T03:18:00;33.10;;;19.70;;
29570;SDS011;16814;52.118;11.436;2022-11-15T03:20:29;35.30;;;20.92;;
29570;SDS011;16814;52.118;11.436;2022-11-15T03:22:56;34.78;;;19.95;;
29570;SDS011;16814;52.118;11.436;2022-11-15T03:25:28;34.65;;;20.27;;
29570;SDS011;16814;52.118;11.436;2022-11-15T03:27:57;35.15;;;20.17;;
29570;SDS011;16814;52.118;11.436;2022-11-15T03:30:26;33.17;;;19.27;;
29570;SDS011;16814;52.118;11.436;2022-11-15T03:32:53;30.57;;;18.83;;
29570;SDS011;16814;52.118;11.436;2022-11-15T03:35:22;28.02;;;17.67;;
29570;SDS011;16814;52.118;11.436;2022-11-15T03:40:38;32.75;;;18.25;;
29570;SDS011;16814;52.118;11.436;2022-11-15T03:43:16;34.17;;;18.67;;
29570;SDS011;16814;52.118;11.436;2022-11-15T03:46:00;29.70;;;17.20;;
29570;SDS011;16814;52.118;11.436;2022-11-15T03:48:35;34.05;;;18.35;;
29570;SDS011;16814;52.118;11.436;2022-11-15T03:51:05;29.77;;;18.00;;
29570;SDS011;16814;52.118;11.436;2022-11-15T03:53:30;29.05;;;18.52;;
29570;SDS011;16814;52.118;11.436;2022-11-15T03:55:56;33.17;;;18.63;;
29570;SDS011;16814;52.118;11.436;2022-11-15T03:58:22;33.75;;;19.13;;
29570;SDS011;16814;52.118;11.436;2022-11-15T04:00:47;35.57;;;19.90;;
29570;SDS011;16814;52.118;11.436;2022-11-15T04:03:13;35.05;;;18.75;;
29570;SDS011;16814;52.118;11.436;2022-11-15T04:05:39;33.90;;;18.93;;
29570;SDS011;16814;52.118;11.436;2022-11-15T04:08:04;32.78;;;18.70;;
29570;SDS011;16814;52.118;11.436;2022-11-15T04:10:30;29.53;;;17.93;;
29570;SDS011;16814;52.118;11.436;2022-11-15T04:12:55;30.43;;;18.40;;
29570;SDS011;16814;52.118;11.436;2022-11-15T04:15:21;29.05;;;17.52;;
29570;SDS011;16814;52.118;11.436;2022-11-15T04:23:13;32.28;;;18.52;;
29570;SDS011;16814;52.118;11.436;2022-11-15T04:25:59;30.67;;;18.63;;
29570;SDS011;16814;52.118;11.436;2022-11-15T04:28:40;32.85;;;18.83;;
29570;SDS011;16814;52.118;11.436;2022-11-15T04:31:26;30.95;;;19.13;;
29570;SDS011;16814;52.118;11.436;2022-11-15T04:33:52;28.15;;;18.23;;
29570;SDS011;16814;52.118;11.436;2022-11-15T04:36:18;31.90;;;17.50;;
29570;SDS011;16814;52.118;11.436;2022-11-15T04:39:03;30.73;;;17.88;;
29570;SDS011;16814;52.118;11.436;2022-11-15T04:41:28;31.37;;;18.10;;
29570;SDS011;16814;52.118;11.436;2022-11-15T04:43:54;28.55;;;17.90;;
29570;SDS011;16814;52.118;11.436;2022-11-15T04:46:20;31.40;;;17.50;;
29570;SDS011;16814;52.118;11.436;2022-11-15T04:48:46;29.90;;;17.67;;
29570;SDS011;16814;52.118;11.436;2022-11-15T04:51:11;30.65;;;17.08;;
29570;SDS011;16814;52.118;11.436;2022-11-15T04:53:37;28.97;;;16.40;;
29570;SDS011;16814;52.118;11.436;2022-11-15T04:56:03;30.67;;;17.23;;
29570;SDS011;16814;52.118;11.436;2022-11-15T04:58:28;32.93;;;17.53;;
29570;SDS011;16814;52.118;11.436;2022-11-15T05:00:54;32.03;;;17.30;;
29570;SDS011;16814;52.118;11.436;2022-11-15T05:03:19;30.97;;;17.10;;
29570;SDS011;16814;52.118;11.436;2022-11-15T05:06:04;29.30;;;16.63;;
29570;SDS011;16814;52.118;11.436;2022-11-15T05:08:30;29.70;;;17.25;;
29570;SDS011;16814;52.118;11.436;2022-11-15T05:10:56;30.17;;;16.50;;
29570;SDS011;16814;52.118;11.436;2022-11-15T05:13:21;28.98;;;16.42;;
29570;SDS011;16814;52.118;11.436;2022-11-15T05:15:47;29.97;;;16.13;;
29570;SDS011;16814;52.118;11.436;2022-11-15T05:18:12;28.92;;;16.95;;
29570;SDS011;16814;52.118;11.436;2022-11-15T05:20:38;28.87;;;16.43;;
29570;SDS011;16814;52.118;11.436;2022-11-15T05:23:04;29.83;;;16.35;;
29570;SDS011;16814;52.118;11.436;2022-11-15T05:25:29;30.03;;;15.90;;
29570;SDS011;16814;52.118;11.436;2022-11-15T05:27:55;31.08;;;16.55;;
29570;SDS011;16814;52.118;11.436;2022-11-15T05:30:20;27.10;;;16.63;;
29570;SDS011;16814;52.118;11.436;2022-11-15T05:32:46;31.73;;;17.30;;
29570;SDS011;16814;52.118;11.436;2022-11-15T05:35:14;28.45;;;16.20;;
29570;SDS011;16814;52.118;11.436;2022-11-15T05:37:56;28.23;;;17.13;;
29570;SDS011;16814;52.118;11.436;2022-11-15T05:40:22;30.47;;;16.40;;
29570;SDS011;16814;52.118;11.436;2022-11-15T05:42:48;29.20;;;16.80;;
29570;SDS011;16814;52.118;11.436;2022-11-15T05:45:15;29.70;;;17.52;;
29570;SDS011;16814;52.118;11.436;2022-11-15T05:47:41;32.53;;;17.63;;
29570;SDS011;16814;52.118;11.436;2022-11-15T05:50:07;29.25;;;16.35;;
29570;SDS011;16814;52.118;11.436;2022-11-15T05:52:36;32.07;;;17.57;;
29570;SDS011;16814;52.118;11.436;2022-11-15T05:55:03;28.75;;;16.70;;
29570;SDS011;16814;52.118;11.436;2022-11-15T05:57:30;29.17;;;16.42;;
29570;SDS011;16814;52.118;11.436;2022-11-15T05:59:55;31.38;;;17.20;;
29570;SDS011;16814;52.118;11.436;2022-11-15T06:02:21;28.93;;;17.07;;
29570;SDS011;16814;52.118;11.436;2022-11-15T06:04:46;30.15;;;17.30;;
29570;SDS011;16814;52.118;11.436;2022-11-15T06:07:12;30.90;;;17.00;;
29570;SDS011;16814;52.118;11.436;2022-11-15T06:09:37;33.87;;;17.73;;
29570;SDS011;16814;52.118;11.436;2022-11-15T06:12:03;29.92;;;17.15;;
29570;SDS011;16814;52.118;11.436;2022-11-15T06:14:29;30.90;;;17.20;;
29570;SDS011;16814;52.118;11.436;2022-11-15T06:16:54;31.55;;;16.52;;
29570;SDS011;16814;52.118;11.436;2022-11-15T06:19:20;30.58;;;16.77;;
29570;SDS011;16814;52.118;11.436;2022-11-15T06:21:46;34.07;;;17.53;;
29570;SDS011;16814;52.118;11.436;2022-11-15T06:24:11;31.40;;;16.30;;
29570;SDS011;16814;52.118;11.436;2022-11-15T06:26:37;29.67;;;16.42;;
29570;SDS011;16814;52.118;11.436;2022-11-15T06:29:03;31.30;;;16.20;;
29570;SDS011;16814;52.118;11.436;2022-11-15T06:31:29;32.42;;;16.85;;
29570;SDS011;16814;52.118;11.436;2022-11-15T06:33:55;31.13;;;16.67;;
29570;SDS011;16814;52.118;11.436;2022-11-15T06:36:20;31.33;;;16.17;;
29570;SDS011;16814;52.118;11.436;2022-11-15T06:38:46;28.45;;;15.95;;
29570;SDS011;16814;52.118;11.436;2022-11-15T06:41:12;28.80;;;16.20;;
29570;SDS011;16814;52.118;11.436;2022-11-15T06:43:39;31.27;;;17.13;;
29570;SDS011;16814;52.118;11.436;2022-11-15T06:46:05;28.58;;;15.68;;
29570;SDS011;16814;52.118;11.436;2022-11-15T06:48:32;35.10;;;16.60;;
29570;SDS011;16814;52.118;11.436;2022-11-15T06:50:59;31.70;;;17.25;;
29570;SDS011;16814;52.118;11.436;2022-11-15T06:53:26;33.60;;;16.58;;
29570;SDS011;16814;52.118;11.436;2022-11-15T06:55:52;34.67;;;16.73;;
29570;SDS011;16814;52.118;11.436;2022-11-15T06:58:18;29.05;;;16.48;;
29570;SDS011;16814;52.118;11.436;2022-11-15T07:00:46;31.30;;;16.58;;
29570;SDS011;16814;52.118;11.436;2022-11-15T07:03:11;31.02;;;16.13;;
29570;SDS011;16814;52.118;11.436;2022-11-15T07:05:37;29.33;;;15.70;;
29570;SDS011;16814;52.118;11.436;2022-11-15T07:08:02;30.10;;;15.85;;
29570;SDS011;16814;52.118;11.436;2022-11-15T07:10:28;28.37;;;14.90;;
29570;SDS011;16814;52.118;11.436;2022-11-15T07:12:55;30.57;;;16.83;;
29570;SDS011;16814;52.118;11.436;2022-11-15T07:15:22;32.63;;;17.00;;
29570;SDS011;16814;52.118;11.436;2022-11-15T07:17:49;35.67;;;18.85;;
29570;SDS011;16814;52.118;11.436;2022-11-15T07:20:15;29.45;;;16.83;;
29570;SDS011;16814;52.118;11.436;2022-11-15T07:22:42;34.65;;;17.00;;
29570;SDS011;16814;52.118;11.436;2022-11-15T07:25:10;29.52;;;16.48;;
29570;SDS011;16814;52.118;11.436;2022-11-15T07:27:35;29.43;;;16.13;;
29570;SDS011;16814;52.118;11.436;2022-11-15T07:30:01;31.00;;;17.00;;
29570;SDS011;16814;52.118;11.436;2022-11-15T07:32:26;28.83;;;15.70;;
29570;SDS011;16814;52.118;11.436;2022-11-15T07:34:52;31.08;;;16.42;;
29570;SDS011;16814;52.118;11.436;2022-11-15T07:37:17;26.67;;;15.53;;
29570;SDS011;16814;52.118;11.436;2022-11-15T07:39:43;26.00;;;15.55;;
29570;SDS011;16814;52.118;11.436;2022-11-15T07:42:09;27.73;;;15.77;;
29570;SDS011;16814;52.118;11.436;2022-11-15T07:44:53;29.80;;;16.10;;
29570;SDS011;16814;52.118;11.436;2022-11-15T07:47:18;31.25;;;17.30;;
29570;SDS011;16814;52.118;11.436;2022-11-15T07:49:44;30.23;;;16.50;;
29570;SDS011;16814;52.118;11.436;2022-11-15T07:52:11;30.63;;;16.02;;
29570;SDS011;16814;52.118;11.436;2022-11-15T07:54:37;28.17;;;15.00;;
29570;SDS011;16814;52.118;11.436;2022-11-15T07:57:02;32.67;;;19.33;;
29570;SDS011;16814;52.118;11.436;2022-11-15T07:59:28;32.42;;;18.08;;
29570;SDS011;16814;52.118;11.436;2022-11-15T08:01:54;33.13;;;19.23;;
29570;SDS011;16814;52.118;11.436;2022-11-15T08:04:19;32.00;;;18.20;;
29570;SDS011;16814;52.118;11.436;2022-11-15T08:06:45;32.83;;;18.00;;
29570;SDS011;16814;52.118;11.436;2022-11-15T08:09:11;37.03;;;18.40;;
29570;SDS011;16814;52.118;11.436;2022-11-15T08:11:36;32.30;;;17.83;;
29570;SDS011;16814;52.118;11.436;2022-11-15T08:14:02;26.42;;;15.80;;
29570;SDS011;16814;52.118;11.436;2022-11-15T08:16:28;27.20;;;14.57;;
29570;SDS011;16814;52.118;11.436;2022-11-15T08:18:53;24.00;;;14.20;;
29570;SDS011;16814;52.118;11.436;2022-11-15T08:21:20;30.88;;;15.18;;
29570;SDS011;16814;52.118;11.436;2022-11-15T08:23:46;23.48;;;14.38;;
29570;SDS011;16814;52.118;11.436;2022-11-15T08:26:11;24.25;;;14.00;;
29570;SDS011;16814;52.118;11.436;2022-11-15T08:28:37;20.97;;;13.00;;
29570;SDS011;16814;52.118;11.436;2022-11-15T08:31:03;23.48;;;13.07;;
29570;SDS011;16814;52.118;11.436;2022-11-15T08:33:30;24.35;;;13.75;;
29570;SDS011;16814;52.118;11.436;2022-11-15T08:35:56;20.30;;;13.02;;
29570;SDS011;16814;52.118;11.436;2022-11-15T08:38:22;22.00;;;12.80;;
29570;SDS011;16814;52.118;11.436;2022-11-15T08:40:49;27.30;;;13.75;;
29570;SDS011;16814;52.118;11.436;2022-11-15T08:43:16;25.50;;;13.57;;
29570;SDS011;16814;52.118;11.436;2022-11-15T08:45:42;25.20;;;13.70;;
29570;SDS011;16814;52.118;11.436;2022-11-15T08:48:08;23.80;;;13.27;;
29570;SDS011;16814;52.118;11.436;2022-11-15T08:50:33;23.43;;;13.10;;
29570;SDS011;16814;52.118;11.436;2022-11-15T08:53:06;21.95;;;12.57;;
29570;SDS011;16814;52.118;11.436;2022-11-15T08:55:35;23.67;;;12.63;;
29570;SDS011;16814;52.118;11.436;2022-11-15T08:58:02;22.30;;;12.13;;
29570;SDS011;16814;52.118;11.436;2022-11-15T09:00:27;20.55;;;11.88;;
29570;SDS011;16814;52.118;11.436;2022-11-15T09:02:53;21.17;;;12.35;;
29570;SDS011;16814;52.118;11.436;2022-11-15T09:05:18;24.13;;;13.97;;
29570;SDS011;16814;52.118;11.436;2022-11-15T09:07:44;23.58;;;13.15;;
29570;SDS011;16814;52.118;11.436;2022-11-15T09:10:09;29.73;;;14.10;;
29570;SDS011;16814;52.118;11.436;2022-11-15T09:12:35;23.47;;;13.27;;
29570;SDS011;16814;52.118;11.436;2022-11-15T09:15:01;24.00;;;13.90;;
29570;SDS011;16814;52.118;11.436;2022-11-15T09:17:27;28.33;;;14.95;;
29570;SDS011;16814;52.118;11.436;2022-11-15T09:19:53;27.67;;;15.70;;
29570;SDS011;16814;52.118;11.436;2022-11-15T09:22:18;25.50;;;15.23;;
29570;SDS011;16814;52.118;11.436;2022-11-15T09:24:44;24.40;;;14.37;;
29570;SDS011;16814;52.118;11.436;2022-11-15T09:27:09;26.27;;;15.23;;
29570;SDS011;16814;52.118;11.436;2022-11-15T09:29:35;24.93;;;14.37;;
29570;SDS011;16814;52.118;11.436;2022-11-15T09:32:01;25.20;;;14.20;;
29570;SDS011;16814;52.118;11.436;2022-11-15T09:34:26;24.53;;;14.40;;
29570;SDS011;16814;52.118;11.436;2022-11-15T09:36:52;27.35;;;14.90;;
29570;SDS011;16814;52.118;11.436;2022-11-15T09:39:18;27.30;;;14.80;;
29570;SDS011;16814;52.118;11.436;2022-11-15T09:47:13;25.17;;;14.18;;
29570;SDS011;16814;52.118;11.436;2022-11-15T09:50:00;20.92;;;13.52;;
29570;SDS011;16814;52.118;11.436;2022-11-15T09:52:33;23.17;;;13.73;;
29570;SDS011;16814;52.118;11.436;2022-11-15T09:55:01;26.92;;;14.38;;
29570;SDS011;16814;52.118;11.436;2022-11-15T09:57:31;25.43;;;13.87;;
29570;SDS011;16814;52.118;11.436;2022-11-15T10:02:55;24.95;;;14.30;;
29570;SDS011;16814;52.118;11.436;2022-11-15T10:05:34;24.58;;;14.18;;
29570;SDS011;16814;52.118;11.436;2022-11-15T10:08:13;24.65;;;14.32;;
29570;SDS011;16814;52.118;11.436;2022-11-15T10:10:49;24.33;;;13.77;;
29570;SDS011;16814;52.118;11.436;2022-11-15T10:13:20;23.83;;;13.40;;
29570;SDS011;16814;52.118;11.436;2022-11-15T10:15:48;23.17;;;13.55;;
29570;SDS011;16814;52.118;11.436;2022-11-15T10:18:16;24.17;;;14.13;;
29570;SDS011;16814;52.118;11.436;2022-11-15T10:20:49;23.95;;;14.50;;
29570;SDS011;16814;52.118;11.436;2022-11-15T10:23:27;28.40;;;13.80;;
29570;SDS011;16814;52.118;11.436;2022-11-15T10:25:54;25.48;;;13.43;;
29570;SDS011;16814;52.118;11.436;2022-11-15T10:28:28;24.70;;;12.63;;
29570;SDS011;16814;52.118;11.436;2022-11-15T10:30:58;22.50;;;11.73;;
29570;SDS011;16814;52.118;11.436;2022-11-15T10:41:16;22.40;;;11.95;;
29570;SDS011;16814;52.118;11.436;2022-11-15T10:43:43;21.02;;;11.85;;
29570;SDS011;16814;52.118;11.436;2022-11-15T10:46:18;21.52;;;10.85;;
29570;SDS011;16814;52.118;11.436;2022-11-15T10:48:45;20.48;;;11.65;;
29570;SDS011;16814;52.118;11.436;2022-11-15T10:51:29;17.90;;;11.27;;
29570;SDS011;16814;52.118;11.436;2022-11-15T10:53:58;18.73;;;10.83;;
29570;SDS011;16814;52.118;11.436;2022-11-15T10:56:25;22.42;;;11.63;;
29570;SDS011;16814;52.118;11.436;2022-11-15T10:58:53;19.60;;;12.18;;
29570;SDS011;16814;52.118;11.436;2022-11-15T11:01:27;43.90;;;22.92;;
29570;SDS011;16814;52.118;11.436;2022-11-15T11:04:00;68.22;;;32.70;;
29570;SDS011;16814;52.118;11.436;2022-11-15T11:06:27;50.10;;;24.75;;
29570;SDS011;16814;52.118;11.436;2022-11-15T11:09:00;29.83;;;15.73;;
29570;SDS011;16814;52.118;11.436;2022-11-15T11:11:47;24.08;;;15.25;;
29570;SDS011;16814;52.118;11.436;2022-11-15T11:17:13;17.60;;;9.00;;
29570;SDS011;16814;52.118;11.436;2022-11-15T11:25:43;13.63;;;7.32;;
29570;SDS011;16814;52.118;11.436;2022-11-15T11:44:56;19.20;;;10.23;;
29570;SDS011;16814;52.118;11.436;2022-11-15T11:47:46;15.65;;;9.20;;
29570;SDS011;16814;52.118;11.436;2022-11-15T11:50:17;15.98;;;9.80;;
29570;SDS011;16814;52.118;11.436;2022-11-15T11:52:56;15.95;;;10.05;;
29570;SDS011;16814;52.118;11.436;2022-11-15T11:55:43;19.75;;;9.57;;
29570;SDS011;16814;52.118;11.436;2022-11-15T11:58:14;19.35;;;11.05;;
29570;SDS011;16814;52.118;11.436;2022-11-15T12:06:54;20.17;;;10.32;;
29570;SDS011;16814;52.118;11.436;2022-11-15T12:12:19;19.60;;;10.00;;
29570;SDS011;16814;52.118;11.436;2022-11-15T12:17:34;18.85;;;9.60;;
29570;SDS011;16814;52.118;11.436;2022-11-15T12:20:02;18.02;;;9.25;;
29570;SDS011;16814;52.118;11.436;2022-11-15T12:23:05;18.40;;;9.07;;
29570;SDS011;16814;52.118;11.436;2022-11-15T12:25:32;20.33;;;9.82;;
29570;SDS011;16814;52.118;11.436;2022-11-15T12:28:34;18.42;;;10.07;;
29570;SDS011;16814;52.118;11.436;2022-11-15T12:33:46;21.30;;;10.95;;
29570;SDS011;16814;52.118;11.436;2022-11-15T12:41:29;24.00;;;11.60;;
29570;SDS011;16814;52.118;11.436;2022-11-15T12:43:56;23.45;;;11.70;;
29570;SDS011;16814;52.118;11.436;2022-11-15T12:48:59;23.70;;;10.73;;
29570;SDS011;16814;52.118;11.436;2022-11-15T13:02:32;22.90;;;12.38;;
29570;SDS011;16814;52.118;11.436;2022-11-15T13:12:51;18.30;;;10.63;;
29570;SDS011;16814;52.118;11.436;2022-11-15T13:18:18;19.70;;;11.32;;
29570;SDS011;16814;52.118;11.436;2022-11-15T13:21:01;16.80;;;10.80;;
29570;SDS011;16814;52.118;11.436;2022-11-15T13:23:51;19.33;;;11.38;;
29570;SDS011;16814;52.118;11.436;2022-11-15T13:26:18;20.97;;;11.10;;
29570;SDS011;16814;52.118;11.436;2022-11-15T13:28:46;22.65;;;10.35;;
29570;SDS011;16814;52.118;11.436;2022-11-15T13:31:24;19.83;;;10.60;;
29570;SDS011;16814;52.118;11.436;2022-11-15T13:33:52;19.55;;;10.50;;
29570;SDS011;16814;52.118;11.436;2022-11-15T13:36:22;17.35;;;9.73;;
29570;SDS011;16814;52.118;11.436;2022-11-15T13:41:44;18.63;;;9.73;;
29570;SDS011;16814;52.118;11.436;2022-11-15T13:44:19;20.65;;;9.60;;
29570;SDS011;16814;52.118;11.436;2022-11-15T13:47:02;18.67;;;9.88;;
29570;SDS011;16814;52.118;11.436;2022-11-15T13:49:31;17.45;;;9.55;;
29570;SDS011;16814;52.118;11.436;2022-11-15T13:51:58;16.95;;;9.15;;
29570;SDS011;16814;52.118;11.436;2022-11-15T13:56:59;20.00;;;9.33;;
29570;SDS011;16814;52.118;11.436;2022-11-15T13:59:29;18.17;;;9.68;;
29570;SDS011;16814;52.118;11.436;2022-11-15T14:01:58;20.63;;;10.02;;
29570;SDS011;16814;52.118;11.436;2022-11-15T14:04:27;17.85;;;9.90;;
29570;SDS011;16814;52.118;11.436;2022-11-15T14:06:56;19.63;;;9.65;;
29570;SDS011;16814;52.118;11.436;2022-11-15T14:09:34;17.02;;;9.75;;
29570;SDS011;16814;52.118;11.436;2022-11-15T14:12:02;20.93;;;10.87;;
29570;SDS011;16814;52.118;11.436;2022-11-15T14:14:45;17.83;;;10.77;;
29570;SDS011;16814;52.118;11.436;2022-11-15T14:17:33;23.05;;;10.32;;
29570;SDS011;16814;52.118;11.436;2022-11-15T14:20:00;23.17;;;11.40;;
29570;SDS011;16814;52.118;11.436;2022-11-15T14:22:27;23.65;;;13.13;;
29570;SDS011;16814;52.118;11.436;2022-11-15T14:27:41;21.27;;;11.27;;
29570;SDS011;16814;52.118;11.436;2022-11-15T14:30:14;24.25;;;12.10;;
29570;SDS011;16814;52.118;11.436;2022-11-15T14:32:43;30.90;;;15.35;;
29570;SDS011;16814;52.118;11.436;2022-11-15T14:35:11;34.83;;;17.38;;
29570;SDS011;16814;52.118;11.436;2022-11-15T14:37:40;38.03;;;20.27;;
29570;SDS011;16814;52.118;11.436;2022-11-15T14:40:06;27.80;;;15.63;;
29570;SDS011;16814;52.118;11.436;2022-11-15T14:42:34;28.83;;;15.60;;
29570;SDS011;16814;52.118;11.436;2022-11-15T14:45:00;30.83;;;14.20;;
29570;SDS011;16814;52.118;11.436;2022-11-15T14:47:25;21.20;;;11.68;;
29570;SDS011;16814;52.118;11.436;2022-11-15T14:49:51;22.60;;;11.13;;
29570;SDS011;16814;52.118;11.436;2022-11-15T14:52:23;20.73;;;10.93;;
29570;SDS011;16814;52.118;11.436;2022-11-15T14:54:51;18.00;;;10.10;;
29570;SDS011;16814;52.118;11.436;2022-11-15T14:57:16;15.73;;;9.63;;
29570;SDS011;16814;52.118;11.436;2022-11-15T14:59:42;16.47;;;9.50;;
29570;SDS011;16814;52.118;11.436;2022-11-15T15:02:09;19.10;;;9.73;;
29570;SDS011;16814;52.118;11.436;2022-11-15T15:04:40;16.35;;;9.05;;
29570;SDS011;16814;52.118;11.436;2022-11-15T15:07:06;14.75;;;9.55;;
29570;SDS011;16814;52.118;11.436;2022-11-15T15:09:31;15.70;;;9.50;;
29570;SDS011;16814;52.118;11.436;2022-11-15T15:11:57;19.70;;;9.83;;
29570;SDS011;16814;52.118;11.436;2022-11-15T15:14:22;18.27;;;9.00;;
29570;SDS011;16814;52.118;11.436;2022-11-15T15:16:48;16.83;;;9.33;;
29570;SDS011;16814;52.118;11.436;2022-11-15T15:19:13;15.87;;;9.40;;
29570;SDS011;16814;52.118;11.436;2022-11-15T15:21:39;15.68;;;9.93;;
29570;SDS011;16814;52.118;11.436;2022-11-15T15:24:04;16.93;;;10.33;;
29570;SDS011;16814;52.118;11.436;2022-11-15T15:26:30;20.30;;;12.37;;
29570;SDS011;16814;52.118;11.436;2022-11-15T15:28:59;17.33;;;9.85;;
29570;SDS011;16814;52.118;11.436;2022-11-15T15:31:24;16.73;;;9.40;;
29570;SDS011;16814;52.118;11.436;2022-11-15T15:33:50;18.93;;;10.37;;
29570;SDS011;16814;52.118;11.436;2022-11-15T15:36:17;17.17;;;10.98;;
29570;SDS011;16814;52.118;11.436;2022-11-15T15:38:43;25.90;;;15.05;;
29570;SDS011;16814;52.118;11.436;2022-11-15T15:41:12;24.05;;;12.02;;
29570;SDS011;16814;52.118;11.436;2022-11-15T15:43:38;21.05;;;10.80;;
29570;SDS011;16814;52.118;11.436;2022-11-15T15:46:07;16.77;;;10.00;;
29570;SDS011;16814;52.118;11.436;2022-11-15T15:48:36;18.67;;;10.10;;
29570;SDS011;16814;52.118;11.436;2022-11-15T15:51:03;19.27;;;9.55;;
29570;SDS011;16814;52.118;11.436;2022-11-15T15:53:28;15.40;;;8.63;;
29570;SDS011;16814;52.118;11.436;2022-11-15T15:55:55;12.90;;;8.20;;
29570;SDS011;16814;52.118;11.436;2022-11-15T15:58:20;14.13;;;8.67;;
29570;SDS011;16814;52.118;11.436;2022-11-15T16:00:46;13.93;;;8.50;;
29570;SDS011;16814;52.118;11.436;2022-11-15T16:03:11;14.40;;;8.77;;
29570;SDS011;16814;52.118;11.436;2022-11-15T16:05:37;17.90;;;9.48;;
29570;SDS011;16814;52.118;11.436;2022-11-15T16:08:03;18.20;;;9.40;;
29570;SDS011;16814;52.118;11.436;2022-11-15T16:10:30;22.93;;;9.90;;
29570;SDS011;16814;52.118;11.436;2022-11-15T16:12:57;19.10;;;9.77;;
29570;SDS011;16814;52.118;11.436;2022-11-15T16:15:24;18.65;;;10.43;;
29570;SDS011;16814;52.118;11.436;2022-11-15T16:18:00;17.75;;;10.10;;
29570;SDS011;16814;52.118;11.436;2022-11-15T16:23:01;45.92;;;21.98;;
29570;SDS011;16814;52.118;11.436;2022-11-15T16:25:36;41.93;;;20.30;;
29570;SDS011;16814;52.118;11.436;2022-11-15T16:28:04;58.05;;;25.40;;
29570;SDS011;16814;52.118;11.436;2022-11-15T16:30:35;59.50;;;24.30;;
29570;SDS011;16814;52.118;11.436;2022-11-15T16:33:01;42.33;;;19.50;;
29570;SDS011;16814;52.118;11.436;2022-11-15T16:35:26;35.67;;;16.65;;
29570;SDS011;16814;52.118;11.436;2022-11-15T16:37:52;45.53;;;20.30;;